sensor_id;sensor_type;location;lat;lon;timestamp;P1;durP1;ratioP1;P2;durP2;ratioP2
11222;SDS011;5668;52.012;8.724;2022-08-03T00:01:44;4.40;;;3.90;;
11222;SDS011;5668;52.012;8.724;2022-08-03T00:04:11;4.40;;;4.00;;
11222;SDS011;5668;52.012;8.724;2022-08-03T00:06:38;4.40;;;4.03;;
11222;SDS011;5668;52.012;8.724;2022-08-03T00:09:07;3.70;;;3.40;;
11222;SDS011;5668;52.012;8.724;2022-08-03T00:11:35;3.70;;;3.40;;
11222;SDS011;5668;52.012;8.724;2022-08-03T00:14:03;4.32;;;3.67;;
11222;SDS011;5668;52.012;8.724;2022-08-03T00:16:30;4.10;;;3.80;;
11222;SDS011;5668;52.012;8.724;2022-08-03T00:18:58;4.18;;;3.42;;
11222;SDS011;5668;52.012;8.724;2022-08-03T00:21:25;4.20;;;3.80;;
11222;SDS011;5668;52.012;8.724;2022-08-03T00:23:52;4.28;;;3.88;;
11222;SDS011;5668;52.012;8.724;2022-08-03T00:26:21;4.07;;;3.72;;
11222;SDS011;5668;52.012;8.724;2022-08-03T00:28:48;6.60;;;4.15;;
11222;SDS011;5668;52.012;8.724;2022-08-03T00:31:16;4.40;;;3.75;;
11222;SDS011;5668;52.012;8.724;2022-08-03T00:33:43;3.90;;;3.60;;
11222;SDS011;5668;52.012;8.724;2022-08-03T00:36:10;3.97;;;3.67;;
11222;SDS011;5668;52.012;8.724;2022-08-03T00:38:37;4.03;;;3.60;;
11222;SDS011;5668;52.012;8.724;2022-08-03T00:41:04;5.13;;;3.60;;
11222;SDS011;5668;52.012;8.724;2022-08-03T00:43:33;5.57;;;3.72;;
11222;SDS011;5668;52.012;8.724;2022-08-03T00:46:00;4.20;;;3.78;;
11222;SDS011;5668;52.012;8.724;2022-08-03T00:48:27;4.20;;;3.80;;
11222;SDS011;5668;52.012;8.724;2022-08-03T00:50:55;3.42;;;3.15;;
11222;SDS011;5668;52.012;8.724;2022-08-03T00:53:22;3.53;;;3.30;;
11222;SDS011;5668;52.012;8.724;2022-08-03T00:55:50;3.50;;;3.30;;
11222;SDS011;5668;52.012;8.724;2022-08-03T00:58:17;3.40;;;3.20;;
11222;SDS011;5668;52.012;8.724;2022-08-03T01:00:46;3.80;;;3.42;;
11222;SDS011;5668;52.012;8.724;2022-08-03T01:03:13;3.38;;;3.17;;
11222;SDS011;5668;52.012;8.724;2022-08-03T01:05:43;3.45;;;3.08;;
11222;SDS011;5668;52.012;8.724;2022-08-03T01:08:18;3.70;;;3.40;;
11222;SDS011;5668;52.012;8.724;2022-08-03T01:11:01;3.63;;;3.33;;
11222;SDS011;5668;52.012;8.724;2022-08-03T01:13:36;4.20;;;3.45;;
11222;SDS011;5668;52.012;8.724;2022-08-03T01:16:17;4.47;;;3.50;;
11222;SDS011;5668;52.012;8.724;2022-08-03T01:18:49;3.63;;;3.33;;
11222;SDS011;5668;52.012;8.724;2022-08-03T01:21:25;3.83;;;3.42;;
11222;SDS011;5668;52.012;8.724;2022-08-03T01:24:04;3.78;;;3.47;;
11222;SDS011;5668;52.012;8.724;2022-08-03T01:26:54;4.38;;;3.97;;
11222;SDS011;5668;52.012;8.724;2022-08-03T01:32:24;3.78;;;3.47;;
11222;SDS011;5668;52.012;8.724;2022-08-03T01:34:57;3.63;;;3.42;;
11222;SDS011;5668;52.012;8.724;2022-08-03T01:37:35;3.88;;;3.30;;
11222;SDS011;5668;52.012;8.724;2022-08-03T01:40:07;3.72;;;3.42;;
11222;SDS011;5668;52.012;8.724;2022-08-03T01:42:37;3.80;;;3.50;;
11222;SDS011;5668;52.012;8.724;2022-08-03T01:45:08;3.78;;;3.47;;
11222;SDS011;5668;52.012;8.724;2022-08-03T01:47:38;4.15;;;3.83;;
11222;SDS011;5668;52.012;8.724;2022-08-03T01:50:07;4.60;;;3.92;;
11222;SDS011;5668;52.012;8.724;2022-08-03T01:52:38;3.90;;;3.60;;
11222;SDS011;5668;52.012;8.724;2022-08-03T01:55:07;4.47;;;4.07;;
11222;SDS011;5668;52.012;8.724;2022-08-03T01:57:37;3.97;;;3.58;;
11222;SDS011;5668;52.012;8.724;2022-08-03T02:00:06;4.70;;;3.95;;
11222;SDS011;5668;52.012;8.724;2022-08-03T02:02:35;3.90;;;3.60;;
11222;SDS011;5668;52.012;8.724;2022-08-03T02:05:05;4.13;;;3.72;;
11222;SDS011;5668;52.012;8.724;2022-08-03T02:07:34;3.70;;;3.40;;
11222;SDS011;5668;52.012;8.724;2022-08-03T02:10:05;6.00;;;3.38;;
11222;SDS011;5668;52.012;8.724;2022-08-03T02:12:36;4.55;;;3.75;;
11222;SDS011;5668;52.012;8.724;2022-08-03T02:15:05;3.85;;;3.55;;
11222;SDS011;5668;52.012;8.724;2022-08-03T02:17:36;4.05;;;3.75;;
11222;SDS011;5668;52.012;8.724;2022-08-03T02:20:05;3.90;;;3.60;;
11222;SDS011;5668;52.012;8.724;2022-08-03T02:22:34;3.72;;;3.38;;
11222;SDS011;5668;52.012;8.724;2022-08-03T02:25:04;3.67;;;3.38;;
11222;SDS011;5668;52.012;8.724;2022-08-03T02:27:33;3.75;;;3.45;;
11222;SDS011;5668;52.012;8.724;2022-08-03T02:30:04;3.78;;;3.50;;
11222;SDS011;5668;52.012;8.724;2022-08-03T02:32:36;3.50;;;3.20;;
11222;SDS011;5668;52.012;8.724;2022-08-03T02:35:09;3.95;;;3.65;;
11222;SDS011;5668;52.012;8.724;2022-08-03T02:37:40;4.20;;;3.40;;
11222;SDS011;5668;52.012;8.724;2022-08-03T02:40:10;3.80;;;3.50;;
11222;SDS011;5668;52.012;8.724;2022-08-03T02:42:40;4.00;;;3.70;;
11222;SDS011;5668;52.012;8.724;2022-08-03T02:45:11;4.00;;;3.70;;
11222;SDS011;5668;52.012;8.724;2022-08-03T02:47:41;4.28;;;3.88;;
11222;SDS011;5668;52.012;8.724;2022-08-03T02:50:11;3.85;;;3.55;;
11222;SDS011;5668;52.012;8.724;2022-08-03T02:52:43;4.82;;;4.32;;
11222;SDS011;5668;52.012;8.724;2022-08-03T02:55:12;3.80;;;3.50;;
11222;SDS011;5668;52.012;8.724;2022-08-03T02:57:41;4.20;;;3.83;;
11222;SDS011;5668;52.012;8.724;2022-08-03T03:02:47;3.80;;;3.50;;
11222;SDS011;5668;52.012;8.724;2022-08-03T03:05:15;4.03;;;3.70;;
11222;SDS011;5668;52.012;8.724;2022-08-03T03:07:43;3.78;;;3.45;;
11222;SDS011;5668;52.012;8.724;2022-08-03T03:10:11;3.45;;;3.15;;
11222;SDS011;5668;52.012;8.724;2022-08-03T03:12:39;4.40;;;3.58;;
11222;SDS011;5668;52.012;8.724;2022-08-03T03:15:08;3.85;;;3.30;;
11222;SDS011;5668;52.012;8.724;2022-08-03T03:17:35;4.05;;;3.20;;
11222;SDS011;5668;52.012;8.724;2022-08-03T03:20:07;4.00;;;3.70;;
11222;SDS011;5668;52.012;8.724;2022-08-03T03:22:37;3.85;;;3.55;;
11222;SDS011;5668;52.012;8.724;2022-08-03T03:25:05;5.05;;;3.75;;
11222;SDS011;5668;52.012;8.724;2022-08-03T03:27:33;3.80;;;3.30;;
11222;SDS011;5668;52.012;8.724;2022-08-03T03:30:02;3.75;;;3.45;;
11222;SDS011;5668;52.012;8.724;2022-08-03T03:32:30;3.78;;;3.45;;
11222;SDS011;5668;52.012;8.724;2022-08-03T03:34:58;3.75;;;3.47;;
11222;SDS011;5668;52.012;8.724;2022-08-03T03:37:27;3.83;;;3.42;;
11222;SDS011;5668;52.012;8.724;2022-08-03T03:39:55;3.75;;;3.45;;
11222;SDS011;5668;52.012;8.724;2022-08-03T03:42:22;3.90;;;3.60;;
11222;SDS011;5668;52.012;8.724;2022-08-03T03:44:51;3.20;;;3.00;;
11222;SDS011;5668;52.012;8.724;2022-08-03T03:47:18;3.70;;;3.40;;
11222;SDS011;5668;52.012;8.724;2022-08-03T03:49:45;3.55;;;3.25;;
11222;SDS011;5668;52.012;8.724;2022-08-03T03:52:13;3.30;;;3.10;;
11222;SDS011;5668;52.012;8.724;2022-08-03T03:54:43;3.92;;;3.30;;
11222;SDS011;5668;52.012;8.724;2022-08-03T03:57:11;4.35;;;3.15;;
11222;SDS011;5668;52.012;8.724;2022-08-03T03:59:38;3.80;;;3.50;;
11222;SDS011;5668;52.012;8.724;2022-08-03T04:02:07;3.53;;;3.17;;
11222;SDS011;5668;52.012;8.724;2022-08-03T04:04:36;3.42;;;3.15;;
11222;SDS011;5668;52.012;8.724;2022-08-03T04:07:23;3.45;;;3.13;;
11222;SDS011;5668;52.012;8.724;2022-08-03T04:10:20;3.63;;;3.35;;
11222;SDS011;5668;52.012;8.724;2022-08-03T04:13:10;3.83;;;3.35;;
11222;SDS011;5668;52.012;8.724;2022-08-03T04:15:40;3.65;;;3.40;;
11222;SDS011;5668;52.012;8.724;2022-08-03T04:18:09;3.50;;;3.30;;
11222;SDS011;5668;52.012;8.724;2022-08-03T04:20:39;3.75;;;3.45;;
11222;SDS011;5668;52.012;8.724;2022-08-03T04:23:10;4.10;;;3.72;;
11222;SDS011;5668;52.012;8.724;2022-08-03T04:25:42;3.78;;;3.40;;
11222;SDS011;5668;52.012;8.724;2022-08-03T04:28:11;3.67;;;3.38;;
11222;SDS011;5668;52.012;8.724;2022-08-03T04:30:40;4.13;;;3.72;;
11222;SDS011;5668;52.012;8.724;2022-08-03T04:33:13;4.40;;;3.67;;
11222;SDS011;5668;52.012;8.724;2022-08-03T04:35:41;4.35;;;3.65;;
11222;SDS011;5668;52.012;8.724;2022-08-03T04:38:12;3.90;;;3.60;;
11222;SDS011;5668;52.012;8.724;2022-08-03T04:40:44;4.07;;;3.65;;
11222;SDS011;5668;52.012;8.724;2022-08-03T04:43:13;4.13;;;3.72;;
11222;SDS011;5668;52.012;8.724;2022-08-03T04:45:43;4.47;;;3.80;;
11222;SDS011;5668;52.012;8.724;2022-08-03T04:48:13;4.03;;;3.67;;
11222;SDS011;5668;52.012;8.724;2022-08-03T04:50:41;4.30;;;3.97;;
11222;SDS011;5668;52.012;8.724;2022-08-03T04:53:08;4.07;;;3.78;;
11222;SDS011;5668;52.012;8.724;2022-08-03T04:55:36;3.95;;;3.65;;
11222;SDS011;5668;52.012;8.724;2022-08-03T04:58:04;4.00;;;3.70;;
11222;SDS011;5668;52.012;8.724;2022-08-03T05:00:31;4.03;;;3.70;;
11222;SDS011;5668;52.012;8.724;2022-08-03T05:03:00;3.97;;;3.67;;
11222;SDS011;5668;52.012;8.724;2022-08-03T05:05:27;3.70;;;3.42;;
11222;SDS011;5668;52.012;8.724;2022-08-03T05:07:55;4.05;;;3.60;;
11222;SDS011;5668;52.012;8.724;2022-08-03T05:10:22;4.43;;;4.03;;
11222;SDS011;5668;52.012;8.724;2022-08-03T05:12:49;4.40;;;4.05;;
11222;SDS011;5668;52.012;8.724;2022-08-03T05:15:19;4.30;;;3.90;;
11222;SDS011;5668;52.012;8.724;2022-08-03T05:17:46;4.47;;;3.70;;
11222;SDS011;5668;52.012;8.724;2022-08-03T05:20:14;4.15;;;3.85;;
11222;SDS011;5668;52.012;8.724;2022-08-03T05:22:42;5.57;;;3.90;;
11222;SDS011;5668;52.012;8.724;2022-08-03T05:25:09;5.30;;;4.40;;
11222;SDS011;5668;52.012;8.724;2022-08-03T05:27:36;4.28;;;3.88;;
11222;SDS011;5668;52.012;8.724;2022-08-03T05:30:04;3.97;;;3.55;;
11222;SDS011;5668;52.012;8.724;2022-08-03T05:32:34;4.50;;;3.38;;
11222;SDS011;5668;52.012;8.724;2022-08-03T05:35:01;4.30;;;3.90;;
11222;SDS011;5668;52.012;8.724;2022-08-03T05:37:28;4.10;;;3.80;;
11222;SDS011;5668;52.012;8.724;2022-08-03T05:39:55;4.05;;;3.70;;
11222;SDS011;5668;52.012;8.724;2022-08-03T05:42:23;4.40;;;3.42;;
11222;SDS011;5668;52.012;8.724;2022-08-03T05:44:50;4.15;;;3.78;;
11222;SDS011;5668;52.012;8.724;2022-08-03T05:47:17;3.75;;;3.38;;
11222;SDS011;5668;52.012;8.724;2022-08-03T05:49:46;4.20;;;3.90;;
11222;SDS011;5668;52.012;8.724;2022-08-03T05:52:13;3.95;;;3.65;;
11222;SDS011;5668;52.012;8.724;2022-08-03T05:54:40;6.35;;;4.20;;
11222;SDS011;5668;52.012;8.724;2022-08-03T05:57:08;3.78;;;3.47;;
11222;SDS011;5668;52.012;8.724;2022-08-03T05:59:36;3.78;;;3.47;;
11222;SDS011;5668;52.012;8.724;2022-08-03T06:02:04;4.28;;;3.50;;
11222;SDS011;5668;52.012;8.724;2022-08-03T06:04:31;4.57;;;3.60;;
11222;SDS011;5668;52.012;8.724;2022-08-03T06:07:00;3.60;;;3.28;;
11222;SDS011;5668;52.012;8.724;2022-08-03T06:09:27;3.55;;;3.30;;
11222;SDS011;5668;52.012;8.724;2022-08-03T06:11:54;3.78;;;3.35;;
11222;SDS011;5668;52.012;8.724;2022-08-03T06:14:21;4.35;;;3.95;;
11222;SDS011;5668;52.012;8.724;2022-08-03T06:16:49;6.50;;;3.90;;
11222;SDS011;5668;52.012;8.724;2022-08-03T06:19:16;3.30;;;3.10;;
11222;SDS011;5668;52.012;8.724;2022-08-03T06:21:43;5.07;;;3.30;;
11222;SDS011;5668;52.012;8.724;2022-08-03T06:24:12;4.05;;;3.67;;
11222;SDS011;5668;52.012;8.724;2022-08-03T06:26:39;3.45;;;3.17;;
11222;SDS011;5668;52.012;8.724;2022-08-03T06:29:07;4.00;;;3.60;;
11222;SDS011;5668;52.012;8.724;2022-08-03T06:31:34;3.53;;;3.22;;
11222;SDS011;5668;52.012;8.724;2022-08-03T06:34:02;3.58;;;3.28;;
11222;SDS011;5668;52.012;8.724;2022-08-03T06:36:30;3.60;;;3.30;;
11222;SDS011;5668;52.012;8.724;2022-08-03T06:38:57;3.80;;;3.50;;
11222;SDS011;5668;52.012;8.724;2022-08-03T06:41:27;3.70;;;3.28;;
11222;SDS011;5668;52.012;8.724;2022-08-03T06:43:54;5.60;;;4.00;;
11222;SDS011;5668;52.012;8.724;2022-08-03T06:46:21;4.13;;;3.33;;
11222;SDS011;5668;52.012;8.724;2022-08-03T06:48:49;5.43;;;3.30;;
11222;SDS011;5668;52.012;8.724;2022-08-03T06:51:16;3.40;;;3.10;;
11222;SDS011;5668;52.012;8.724;2022-08-03T06:53:43;4.05;;;3.05;;
11222;SDS011;5668;52.012;8.724;2022-08-03T06:56:10;3.63;;;3.28;;
11222;SDS011;5668;52.012;8.724;2022-08-03T06:58:39;4.88;;;3.15;;
11222;SDS011;5668;52.012;8.724;2022-08-03T07:01:06;3.17;;;2.70;;
11222;SDS011;5668;52.012;8.724;2022-08-03T07:03:34;3.00;;;2.80;;
11222;SDS011;5668;52.012;8.724;2022-08-03T07:06:01;3.45;;;3.25;;
11222;SDS011;5668;52.012;8.724;2022-08-03T07:08:28;3.78;;;3.00;;
11222;SDS011;5668;52.012;8.724;2022-08-03T07:10:55;3.78;;;2.90;;
11222;SDS011;5668;52.012;8.724;2022-08-03T07:13:23;3.75;;;2.70;;
11222;SDS011;5668;52.012;8.724;2022-08-03T07:15:51;4.15;;;3.17;;
11222;SDS011;5668;52.012;8.724;2022-08-03T07:18:18;3.55;;;2.88;;
11222;SDS011;5668;52.012;8.724;2022-08-03T07:20:46;3.60;;;3.08;;
11222;SDS011;5668;52.012;8.724;2022-08-03T07:23:13;3.78;;;2.85;;
11222;SDS011;5668;52.012;8.724;2022-08-03T07:25:40;4.78;;;3.00;;
11222;SDS011;5668;52.012;8.724;2022-08-03T07:28:07;2.83;;;2.63;;
11222;SDS011;5668;52.012;8.724;2022-08-03T07:30:35;3.65;;;2.58;;
11222;SDS011;5668;52.012;8.724;2022-08-03T07:33:04;3.05;;;2.50;;
11222;SDS011;5668;52.012;8.724;2022-08-03T07:35:31;3.65;;;2.70;;
11222;SDS011;5668;52.012;8.724;2022-08-03T07:37:58;4.20;;;2.42;;
11222;SDS011;5668;52.012;8.724;2022-08-03T07:40:25;2.50;;;2.20;;
11222;SDS011;5668;52.012;8.724;2022-08-03T07:42:52;3.05;;;2.10;;
11222;SDS011;5668;52.012;8.724;2022-08-03T07:45:20;6.05;;;2.20;;
11222;SDS011;5668;52.012;8.724;2022-08-03T07:47:48;3.95;;;1.70;;
11222;SDS011;5668;52.012;8.724;2022-08-03T07:50:17;2.75;;;1.92;;
11222;SDS011;5668;52.012;8.724;2022-08-03T07:52:45;3.80;;;2.17;;
11222;SDS011;5668;52.012;8.724;2022-08-03T07:55:15;2.45;;;1.80;;
11222;SDS011;5668;52.012;8.724;2022-08-03T07:57:44;3.55;;;2.03;;
11222;SDS011;5668;52.012;8.724;2022-08-03T08:00:12;2.60;;;1.67;;
11222;SDS011;5668;52.012;8.724;2022-08-03T08:02:41;3.78;;;1.70;;
11222;SDS011;5668;52.012;8.724;2022-08-03T08:05:09;2.25;;;1.80;;
11222;SDS011;5668;52.012;8.724;2022-08-03T08:07:38;2.83;;;1.52;;
11222;SDS011;5668;52.012;8.724;2022-08-03T08:10:07;4.38;;;1.80;;
11222;SDS011;5668;52.012;8.724;2022-08-03T08:12:36;2.83;;;1.70;;
11222;SDS011;5668;52.012;8.724;2022-08-03T08:15:04;4.72;;;1.70;;
11222;SDS011;5668;52.012;8.724;2022-08-03T08:17:39;3.15;;;1.60;;
11222;SDS011;5668;52.012;8.724;2022-08-03T08:20:09;3.95;;;1.70;;
11222;SDS011;5668;52.012;8.724;2022-08-03T08:22:42;3.13;;;1.30;;
11222;SDS011;5668;52.012;8.724;2022-08-03T08:25:09;2.70;;;1.42;;
11222;SDS011;5668;52.012;8.724;2022-08-03T08:27:40;4.63;;;1.58;;
11222;SDS011;5668;52.012;8.724;2022-08-03T08:30:08;2.53;;;1.60;;
11222;SDS011;5668;52.012;8.724;2022-08-03T08:32:37;1.92;;;1.33;;
11222;SDS011;5668;52.012;8.724;2022-08-03T08:35:05;1.50;;;1.40;;
11222;SDS011;5668;52.012;8.724;2022-08-03T08:37:33;1.90;;;1.40;;
11222;SDS011;5668;52.012;8.724;2022-08-03T08:40:02;3.20;;;1.45;;
11222;SDS011;5668;52.012;8.724;2022-08-03T08:42:32;6.93;;;1.80;;
11222;SDS011;5668;52.012;8.724;2022-08-03T08:44:59;3.25;;;1.50;;
11222;SDS011;5668;52.012;8.724;2022-08-03T08:47:29;2.25;;;1.50;;
11222;SDS011;5668;52.012;8.724;2022-08-03T08:49:58;3.45;;;1.48;;
11222;SDS011;5668;52.012;8.724;2022-08-03T08:52:27;1.88;;;1.38;;
11222;SDS011;5668;52.012;8.724;2022-08-03T08:54:57;2.65;;;1.40;;
11222;SDS011;5668;52.012;8.724;2022-08-03T08:57:29;3.58;;;1.58;;
11222;SDS011;5668;52.012;8.724;2022-08-03T08:59:59;2.30;;;1.17;;
11222;SDS011;5668;52.012;8.724;2022-08-03T09:02:28;3.08;;;1.27;;
11222;SDS011;5668;52.012;8.724;2022-08-03T09:04:56;3.45;;;1.48;;
11222;SDS011;5668;52.012;8.724;2022-08-03T09:07:24;1.63;;;1.45;;
11222;SDS011;5668;52.012;8.724;2022-08-03T09:09:52;2.08;;;1.55;;
11222;SDS011;5668;52.012;8.724;2022-08-03T09:12:20;2.28;;;1.45;;
11222;SDS011;5668;52.012;8.724;2022-08-03T09:14:48;3.30;;;1.35;;
11222;SDS011;5668;52.012;8.724;2022-08-03T09:17:16;1.55;;;1.42;;
11222;SDS011;5668;52.012;8.724;2022-08-03T09:19:43;4.25;;;1.40;;
11222;SDS011;5668;52.012;8.724;2022-08-03T09:22:31;3.38;;;1.67;;
11222;SDS011;5668;52.012;8.724;2022-08-03T09:24:59;4.25;;;1.73;;
11222;SDS011;5668;52.012;8.724;2022-08-03T09:27:28;2.30;;;1.50;;
11222;SDS011;5668;52.012;8.724;2022-08-03T09:30:11;1.88;;;1.50;;
11222;SDS011;5668;52.012;8.724;2022-08-03T09:32:40;2.22;;;1.60;;
11222;SDS011;5668;52.012;8.724;2022-08-03T09:35:09;2.63;;;1.45;;
11222;SDS011;5668;52.012;8.724;2022-08-03T09:37:37;1.80;;;1.67;;
11222;SDS011;5668;52.012;8.724;2022-08-03T09:40:05;3.22;;;1.70;;
11222;SDS011;5668;52.012;8.724;2022-08-03T09:42:35;2.00;;;1.48;;
11222;SDS011;5668;52.012;8.724;2022-08-03T09:45:03;3.33;;;1.50;;
11222;SDS011;5668;52.012;8.724;2022-08-03T09:47:33;2.72;;;1.63;;
11222;SDS011;5668;52.012;8.724;2022-08-03T09:50:02;5.53;;;1.83;;
11222;SDS011;5668;52.012;8.724;2022-08-03T09:52:32;1.77;;;1.52;;
11222;SDS011;5668;52.012;8.724;2022-08-03T09:55:01;4.13;;;1.50;;
11222;SDS011;5668;52.012;8.724;2022-08-03T09:57:33;2.45;;;1.48;;
11222;SDS011;5668;52.012;8.724;2022-08-03T10:00:05;2.85;;;1.40;;
11222;SDS011;5668;52.012;8.724;2022-08-03T10:02:37;4.50;;;1.60;;
11222;SDS011;5668;52.012;8.724;2022-08-03T10:05:06;1.88;;;1.40;;
11222;SDS011;5668;52.012;8.724;2022-08-03T10:07:41;1.83;;;1.20;;
11222;SDS011;5668;52.012;8.724;2022-08-03T10:10:09;2.65;;;1.13;;
11222;SDS011;5668;52.012;8.724;2022-08-03T10:12:37;2.55;;;1.30;;
11222;SDS011;5668;52.012;8.724;2022-08-03T10:15:06;2.95;;;1.60;;
11222;SDS011;5668;52.012;8.724;2022-08-03T10:17:34;3.40;;;1.00;;
11222;SDS011;5668;52.012;8.724;2022-08-03T10:20:05;2.00;;;1.30;;
11222;SDS011;5668;52.012;8.724;2022-08-03T10:22:35;2.50;;;1.40;;
11222;SDS011;5668;52.012;8.724;2022-08-03T10:25:05;2.42;;;1.50;;
11222;SDS011;5668;52.012;8.724;2022-08-03T10:27:35;1.42;;;1.30;;
11222;SDS011;5668;52.012;8.724;2022-08-03T10:30:05;3.17;;;1.42;;
11222;SDS011;5668;52.012;8.724;2022-08-03T10:32:33;2.58;;;1.33;;
11222;SDS011;5668;52.012;8.724;2022-08-03T10:35:10;3.53;;;1.50;;
11222;SDS011;5668;52.012;8.724;2022-08-03T10:37:39;2.38;;;1.30;;
11222;SDS011;5668;52.012;8.724;2022-08-03T10:40:09;1.80;;;1.30;;
11222;SDS011;5668;52.012;8.724;2022-08-03T10:42:44;2.65;;;1.30;;
11222;SDS011;5668;52.012;8.724;2022-08-03T10:45:14;2.67;;;1.52;;
11222;SDS011;5668;52.012;8.724;2022-08-03T10:47:46;2.85;;;1.20;;
11222;SDS011;5668;52.012;8.724;2022-08-03T10:50:16;2.50;;;1.40;;
11222;SDS011;5668;52.012;8.724;2022-08-03T10:52:52;2.72;;;1.50;;
11222;SDS011;5668;52.012;8.724;2022-08-03T10:55:29;2.03;;;1.20;;
11222;SDS011;5668;52.012;8.724;2022-08-03T11:01:15;2.03;;;1.30;;
11222;SDS011;5668;52.012;8.724;2022-08-03T11:06:44;2.17;;;1.33;;
11222;SDS011;5668;52.012;8.724;2022-08-03T11:09:14;1.63;;;1.25;;
11222;SDS011;5668;52.012;8.724;2022-08-03T11:11:43;2.25;;;1.30;;
11222;SDS011;5668;52.012;8.724;2022-08-03T11:14:13;2.20;;;1.30;;
11222;SDS011;5668;52.012;8.724;2022-08-03T11:16:43;2.00;;;1.05;;
11222;SDS011;5668;52.012;8.724;2022-08-03T11:19:12;1.77;;;1.33;;
11222;SDS011;5668;52.012;8.724;2022-08-03T11:21:55;2.72;;;1.50;;
11222;SDS011;5668;52.012;8.724;2022-08-03T11:27:22;1.67;;;1.30;;
11222;SDS011;5668;52.012;8.724;2022-08-03T11:29:54;2.88;;;1.35;;
11222;SDS011;5668;52.012;8.724;2022-08-03T11:35:26;3.15;;;1.48;;
11222;SDS011;5668;52.012;8.724;2022-08-03T11:38:02;3.08;;;1.50;;
11222;SDS011;5668;52.012;8.724;2022-08-03T11:40:33;2.42;;;1.33;;
11222;SDS011;5668;52.012;8.724;2022-08-03T11:43:05;2.40;;;1.52;;
11222;SDS011;5668;52.012;8.724;2022-08-03T11:45:33;1.40;;;1.30;;
11222;SDS011;5668;52.012;8.724;2022-08-03T11:48:10;1.42;;;1.20;;
11222;SDS011;5668;52.012;8.724;2022-08-03T11:50:39;2.33;;;1.38;;
11222;SDS011;5668;52.012;8.724;2022-08-03T11:53:14;2.92;;;1.33;;
11222;SDS011;5668;52.012;8.724;2022-08-03T11:55:43;3.15;;;1.48;;
11222;SDS011;5668;52.012;8.724;2022-08-03T11:58:19;1.48;;;1.35;;
11222;SDS011;5668;52.012;8.724;2022-08-03T12:00:47;1.35;;;1.23;;
11222;SDS011;5668;52.012;8.724;2022-08-03T12:03:16;2.58;;;1.60;;
11222;SDS011;5668;52.012;8.724;2022-08-03T12:05:45;2.58;;;1.30;;
11222;SDS011;5668;52.012;8.724;2022-08-03T12:08:15;2.92;;;1.45;;
11222;SDS011;5668;52.012;8.724;2022-08-03T12:10:47;3.50;;;1.70;;
11222;SDS011;5668;52.012;8.724;2022-08-03T12:13:17;3.38;;;1.60;;
11222;SDS011;5668;52.012;8.724;2022-08-03T12:15:49;4.25;;;1.48;;
11222;SDS011;5668;52.012;8.724;2022-08-03T12:18:18;2.65;;;1.40;;
11222;SDS011;5668;52.012;8.724;2022-08-03T12:20:47;3.58;;;1.40;;
11222;SDS011;5668;52.012;8.724;2022-08-03T12:23:18;2.65;;;1.30;;
11222;SDS011;5668;52.012;8.724;2022-08-03T12:25:46;2.97;;;1.50;;
11222;SDS011;5668;52.012;8.724;2022-08-03T12:28:14;4.03;;;1.80;;
11222;SDS011;5668;52.012;8.724;2022-08-03T12:30:44;2.03;;;1.40;;
11222;SDS011;5668;52.012;8.724;2022-08-03T12:33:14;1.50;;;1.40;;
11222;SDS011;5668;52.012;8.724;2022-08-03T12:35:44;2.70;;;1.60;;
11222;SDS011;5668;52.012;8.724;2022-08-03T12:38:12;2.00;;;1.60;;
11222;SDS011;5668;52.012;8.724;2022-08-03T12:40:54;2.38;;;1.55;;
11222;SDS011;5668;52.012;8.724;2022-08-03T12:43:22;2.00;;;1.35;;
11222;SDS011;5668;52.012;8.724;2022-08-03T12:45:50;1.80;;;1.40;;
11222;SDS011;5668;52.012;8.724;2022-08-03T12:48:31;2.08;;;1.30;;
11222;SDS011;5668;52.012;8.724;2022-08-03T12:51:06;2.55;;;1.55;;
11222;SDS011;5668;52.012;8.724;2022-08-03T12:53:35;2.78;;;1.38;;
11222;SDS011;5668;52.012;8.724;2022-08-03T12:56:03;2.30;;;1.40;;
11222;SDS011;5668;52.012;8.724;2022-08-03T12:58:32;2.10;;;1.52;;
11222;SDS011;5668;52.012;8.724;2022-08-03T13:01:01;1.85;;;1.35;;
11222;SDS011;5668;52.012;8.724;2022-08-03T13:03:38;1.67;;;1.25;;
11222;SDS011;5668;52.012;8.724;2022-08-03T13:06:09;2.55;;;1.52;;
11222;SDS011;5668;52.012;8.724;2022-08-03T13:08:39;2.15;;;1.40;;
11222;SDS011;5668;52.012;8.724;2022-08-03T13:11:17;2.67;;;1.33;;
11222;SDS011;5668;52.012;8.724;2022-08-03T13:13:45;4.90;;;1.85;;
11222;SDS011;5668;52.012;8.724;2022-08-03T13:16:12;2.50;;;1.50;;
11222;SDS011;5668;52.012;8.724;2022-08-03T13:18:39;2.92;;;1.30;;
11222;SDS011;5668;52.012;8.724;2022-08-03T13:21:07;2.00;;;1.60;;
11222;SDS011;5668;52.012;8.724;2022-08-03T13:23:34;3.03;;;1.50;;
11222;SDS011;5668;52.012;8.724;2022-08-03T13:26:02;1.95;;;1.50;;
11222;SDS011;5668;52.012;8.724;2022-08-03T13:28:30;3.03;;;1.60;;
11222;SDS011;5668;52.012;8.724;2022-08-03T13:30:57;3.20;;;1.42;;
11222;SDS011;5668;52.012;8.724;2022-08-03T13:33:25;2.17;;;1.65;;
11222;SDS011;5668;52.012;8.724;2022-08-03T13:35:52;3.53;;;1.42;;
11222;SDS011;5668;52.012;8.724;2022-08-03T13:38:20;2.28;;;1.52;;
11222;SDS011;5668;52.012;8.724;2022-08-03T13:40:47;1.88;;;1.40;;
11222;SDS011;5668;52.012;8.724;2022-08-03T13:43:17;1.92;;;1.42;;
11222;SDS011;5668;52.012;8.724;2022-08-03T13:45:44;1.92;;;1.42;;
11222;SDS011;5668;52.012;8.724;2022-08-03T13:48:12;3.88;;;1.67;;
11222;SDS011;5668;52.012;8.724;2022-08-03T13:50:39;2.55;;;1.40;;
11222;SDS011;5668;52.012;8.724;2022-08-03T13:53:06;1.90;;;1.50;;
11222;SDS011;5668;52.012;8.724;2022-08-03T13:55:33;3.70;;;1.42;;
11222;SDS011;5668;52.012;8.724;2022-08-03T13:58:00;3.53;;;1.52;;
11222;SDS011;5668;52.012;8.724;2022-08-03T14:00:29;1.50;;;1.40;;
11222;SDS011;5668;52.012;8.724;2022-08-03T14:02:57;1.60;;;1.27;;
11222;SDS011;5668;52.012;8.724;2022-08-03T14:05:26;5.72;;;2.58;;
11222;SDS011;5668;52.012;8.724;2022-08-03T14:07:54;7.60;;;2.78;;
11222;SDS011;5668;52.012;8.724;2022-08-03T14:10:21;3.67;;;1.67;;
11222;SDS011;5668;52.012;8.724;2022-08-03T14:12:49;3.58;;;1.55;;
11222;SDS011;5668;52.012;8.724;2022-08-03T14:15:16;1.95;;;1.40;;
11222;SDS011;5668;52.012;8.724;2022-08-03T14:17:45;2.30;;;1.30;;
11222;SDS011;5668;52.012;8.724;2022-08-03T14:20:12;3.83;;;1.40;;
11222;SDS011;5668;52.012;8.724;2022-08-03T14:22:40;3.50;;;1.70;;
11222;SDS011;5668;52.012;8.724;2022-08-03T14:25:07;3.00;;;1.25;;
11222;SDS011;5668;52.012;8.724;2022-08-03T14:27:35;3.03;;;1.92;;
11222;SDS011;5668;52.012;8.724;2022-08-03T14:30:02;2.97;;;1.50;;
11222;SDS011;5668;52.012;8.724;2022-08-03T14:32:30;2.05;;;1.30;;
11222;SDS011;5668;52.012;8.724;2022-08-03T14:34:58;2.63;;;1.80;;
11222;SDS011;5668;52.012;8.724;2022-08-03T14:37:26;2.40;;;1.40;;
11222;SDS011;5668;52.012;8.724;2022-08-03T14:39:53;3.90;;;1.35;;
11222;SDS011;5668;52.012;8.724;2022-08-03T14:42:21;2.80;;;1.40;;
11222;SDS011;5668;52.012;8.724;2022-08-03T14:44:48;3.72;;;1.58;;
11222;SDS011;5668;52.012;8.724;2022-08-03T14:47:15;2.72;;;1.60;;
11222;SDS011;5668;52.012;8.724;2022-08-03T14:49:42;2.55;;;1.30;;
11222;SDS011;5668;52.012;8.724;2022-08-03T14:52:11;3.05;;;1.60;;
11222;SDS011;5668;52.012;8.724;2022-08-03T14:54:38;1.70;;;1.20;;
11222;SDS011;5668;52.012;8.724;2022-08-03T14:57:05;3.97;;;1.25;;
11222;SDS011;5668;52.012;8.724;2022-08-03T14:59:33;2.78;;;1.33;;
11222;SDS011;5668;52.012;8.724;2022-08-03T15:02:00;2.63;;;1.40;;
11222;SDS011;5668;52.012;8.724;2022-08-03T15:04:27;2.72;;;1.45;;
11222;SDS011;5668;52.012;8.724;2022-08-03T15:06:54;4.93;;;1.17;;
11222;SDS011;5668;52.012;8.724;2022-08-03T15:09:23;1.70;;;1.10;;
11222;SDS011;5668;52.012;8.724;2022-08-03T15:11:50;2.05;;;1.10;;
11222;SDS011;5668;52.012;8.724;2022-08-03T15:14:17;2.17;;;1.27;;
11222;SDS011;5668;52.012;8.724;2022-08-03T15:16:44;1.77;;;1.30;;
11222;SDS011;5668;52.012;8.724;2022-08-03T15:19:12;1.95;;;1.30;;
11222;SDS011;5668;52.012;8.724;2022-08-03T15:21:39;2.58;;;1.20;;
11222;SDS011;5668;52.012;8.724;2022-08-03T15:24:07;2.33;;;1.50;;
11222;SDS011;5668;52.012;8.724;2022-08-03T15:26:35;2.10;;;1.40;;
11222;SDS011;5668;52.012;8.724;2022-08-03T15:29:03;3.25;;;1.52;;
11222;SDS011;5668;52.012;8.724;2022-08-03T15:31:32;1.63;;;1.33;;